Terminal Aerodrome Forecast
Issued by NWS

Home | Current Version | Previous Version | Text Only | Print | Product List | Glossary On
Versions: 1 2 3 4 5 6 7 8 9 10 11 12 13 14 15 16 17 18 19 20 21 22 23 24 25 26
000
FTUS45 KGJT 211125
TAFEGE
TAF
KEGE 211125Z 2112/2212 27010KT P6SM VCSH OVC050
     FM211600 22005KT P6SM SCT050 BKN060
     FM212100 24007KT P6SM FEW050 SCT200
     FM220100 VRB03KT P6SM FEW080 SCT200
      AMD LTD TO CLD VIS AND WIND TIL 211400=

USA.gov is the U.S. government's official web portal to all federal, state and local government web resources and services.